Time;durP1;ratioP1;P1;durP2;ratioP2;P2;SDS_P1;SDS_P2;PMS_P1;PMS_P2;Temp;Humidity;BMP_temperature;BMP_pressure;BME280_temperature;BME280_humidity;BME280_pressure;Samples;Min_cycle;Max_cycle;Signal;HPM_P1;HPM_P2
2022/02/15 00:00:05;;;;;;;;;;;7.20;99.90;7.60;99202.00;;;;343256;28;83296;-91
2022/02/15 00:00:18;;;;;;;;;;;7.20;99.90;7.50;99202.00;;;;342445;28;96605;-91
2022/02/15 00:00:30;;;;;;;;;;;7.20;99.90;7.50;99196.00;;;;342000;28;83338;-90
2022/02/15 00:00:42;;;;;;;;;;;7.20;99.90;7.50;99200.00;;;;343813;28;97535;-91
2022/02/15 00:00:54;;;;;;;;;;;7.20;99.90;7.60;99190.00;;;;344685;28;83427;-90
2022/02/15 00:01:06;;;;;;;;;;;7.20;99.90;7.70;99195.00;;;;343875;28;96595;-91
2022/02/15 00:01:18;;;;;;;;;;;7.20;99.90;7.80;99198.00;;;;345971;28;83488;-90
2022/02/15 00:01:30;;;;;;;;;;;7.20;99.90;7.60;99201.00;;;;342633;28;95251;-90
2022/02/15 00:01:41;;;;;;;;;;;7.20;99.90;7.60;99188.00;;;;343382;28;82500;-90
2022/02/15 00:01:53;;;;;;;;;;;7.20;99.90;7.50;99199.00;;;;341848;28;96510;-91
2022/02/15 00:02:05;;;;;;;;;;;7.20;99.90;7.50;99205.00;;;;346501;28;82642;-90
2022/02/15 00:02:18;;;;;;;;;;;7.20;99.90;7.50;99205.00;;;;342515;28;96560;-90
2022/02/15 00:02:29;;;;;;;;;;;7.20;99.90;7.50;99207.00;;;;342241;28;83580;-90
2022/02/15 00:02:41;;;;;;;;;;;7.20;99.90;7.50;99205.00;;;;341170;28;97608;-90
2022/02/15 00:02:53;;;;;;;;;;;7.20;99.90;7.50;99203.00;;;;341976;28;83433;-91
2022/02/15 00:03:06;;;;;;;;;;;7.10;99.90;7.40;99200.00;;;;341060;28;94600;-90
2022/02/15 00:03:18;;;;;;;;;;;7.20;99.90;7.40;99196.00;;;;341923;28;82530;-91
2022/02/15 00:03:30;;;;;;;;;;;7.10;99.90;7.40;99203.00;;;;342665;28;96503;-90
2022/02/15 00:03:42;;;;;;;;;;;7.10;99.90;7.40;99211.00;;;;343424;28;82309;-91
2022/02/15 00:03:54;;;;;;;;;;;7.10;99.90;7.40;99210.00;;;;342541;28;95745;-90
2022/02/15 00:04:07;;;;;;;;;;;7.10;99.90;7.40;99204.00;;;;343346;28;83487;-90
2022/02/15 00:04:18;;;;;;;;;;;7.10;99.90;7.40;99204.00;;;;342528;28;96823;-90
2022/02/15 00:04:30;;;;;;;;;;;7.10;99.90;7.40;99205.00;;;;343358;28;83372;-91
2022/02/15 00:04:42;;;;;;;;;;;7.10;99.90;7.40;99206.00;;;;341091;28;96321;-91
2022/02/15 00:04:54;;;;;;;;;;;7.10;99.90;7.40;99199.00;;;;340532;28;82513;-91
2022/02/15 00:05:07;;;;;;;;;;;7.10;99.90;7.40;99197.00;;;;343706;28;96628;-90
2022/02/15 00:05:19;;;;;;;;;;;7.10;99.90;7.50;99204.00;;;;343233;28;83402;-90
2022/02/15 00:05:31;;;;;;;;;;;7.10;99.90;7.50;99212.00;;;;342414;28;95622;-91
2022/02/15 00:05:42;;;;;;;;;;;7.10;99.90;7.50;99209.00;;;;341887;28;83420;-91
2022/02/15 00:05:54;;;;;;;;;;;7.10;99.90;7.40;99209.00;;;;341080;28;96851;-91
2022/02/15 00:06:07;;;;;;;;;;;7.10;99.90;7.40;99211.00;;;;342049;28;83313;-90
2022/02/15 00:06:19;;;;;;;;;;;7.10;99.90;7.40;99204.00;;;;341275;28;95571;-90
2022/02/15 00:06:31;;;;;;;;;;;7.10;99.90;7.40;99211.00;;;;341958;28;83280;-90
2022/02/15 00:06:43;;;;;;;;;;;7.10;99.90;7.50;99208.00;;;;341045;28;97881;-91
2022/02/15 00:06:54;;;;;;;;;;;7.10;99.90;7.50;99205.00;;;;341989;28;83270;-90
2022/02/15 00:07:07;;;;;;;;;;;7.10;99.90;7.50;99206.00;;;;342611;28;94555;-90
2022/02/15 00:07:19;;;;;;;;;;;7.10;99.90;7.50;99205.00;;;;343350;28;83249;-91
2022/02/15 00:07:31;;;;;;;;;;;7.10;99.90;7.50;99209.00;;;;342473;28;95407;-91
2022/02/15 00:07:43;;;;;;;;;;;7.10;99.90;7.50;99203.00;;;;344757;28;82464;-90
2022/02/15 00:07:54;;;;;;;;;;;7.10;99.90;7.50;99196.00;;;;343108;28;95478;-91
2022/02/15 00:08:08;;;;;;;;;;;7.10;99.90;7.50;99206.00;;;;342109;28;82560;-90
2022/02/15 00:08:20;;;;;;;;;;;7.00;99.90;7.50;99204.00;;;;341204;28;96525;-91
2022/02/15 00:08:31;;;;;;;;;;;7.10;99.90;7.40;99203.00;;;;342986;28;82584;-91
2022/02/15 00:08:43;;;;;;;;;;;7.10;99.90;7.40;99206.00;;;;342343;28;97487;-90
2022/02/15 00:08:55;;;;;;;;;;;7.10;99.90;7.60;99208.00;;;;342094;28;82547;-91
2022/02/15 00:09:08;;;;;;;;;;;7.10;99.90;7.50;99204.00;;;;342305;28;94523;-91
2022/02/15 00:09:20;;;;;;;;;;;7.10;99.90;7.50;99204.00;;;;341837;28;83430;-91
2022/02/15 00:09:31;;;;;;;;;;;7.10;99.90;7.50;99205.00;;;;341085;28;96377;-91
2022/02/15 00:09:43;;;;;;;;;;;7.10;99.90;7.40;99196.00;;;;343354;28;82546;-91
2022/02/15 00:09:55;;;;;;;;;;;7.10;99.90;7.40;99210.00;;;;342523;28;95517;-91
2022/02/15 00:10:08;;;;;;;;;;;7.10;99.90;7.50;99203.00;;;;341916;28;83474;-91
2022/02/15 00:10:20;;;;;;;;;;;7.10;99.90;7.50;99206.00;;;;341032;28;95596;-91
2022/02/15 00:10:39;;;;;;;;;;;7.10;99.90;7.50;99207.00;;;;343341;28;82558;-90
2022/02/15 00:10:51;;;;;;;;;;;7.10;99.90;7.50;99207.00;;;;343399;28;97584;-90
2022/02/15 00:11:03;;;;;;;;;;;7.10;99.90;7.40;99207.00;;;;341740;28;83740;-90
2022/02/15 00:11:15;;;;;;;;;;;7.10;99.90;7.40;99199.00;;;;343785;28;95493;-90
2022/02/15 00:11:27;;;;;;;;;;;7.10;99.90;7.50;99204.00;;;;344696;28;82449;-90
2022/02/15 00:11:39;;;;;;;;;;;7.00;99.90;7.60;99206.00;;;;342701;28;95429;-91
2022/02/15 00:11:51;;;;;;;;;;;7.10;99.90;7.60;99201.00;;;;344731;28;83358;-90
2022/02/15 00:12:03;;;;;;;;;;;7.10;99.90;7.50;99204.00;;;;340910;28;96681;-90
2022/02/15 00:12:15;;;;;;;;;;;7.10;99.90;7.60;99211.00;;;;345144;28;83552;-90
2022/02/15 00:12:27;;;;;;;;;;;7.10;99.90;7.60;99212.00;;;;344676;28;96545;-90
2022/02/15 00:12:39;;;;;;;;;;;7.10;99.90;7.60;99208.00;;;;341971;28;82620;-90
2022/02/15 00:12:51;;;;;;;;;;;7.10;99.90;7.60;99208.00;;;;343955;28;96000;-90
2022/02/15 00:13:03;;;;;;;;;;;7.10;99.90;7.50;99202.00;;;;346104;28;83407;-91
2022/02/15 00:13:15;;;;;;;;;;;7.10;99.90;7.50;99206.00;;;;342565;28;96023;-90
2022/02/15 00:13:27;;;;;;;;;;;7.10;99.90;7.50;99205.00;;;;343339;28;83475;-91
2022/02/15 00:13:39;;;;;;;;;;;7.10;99.90;7.50;99206.00;;;;344083;28;96689;-91
2022/02/15 00:13:51;;;;;;;;;;;7.10;99.90;7.50;99210.00;;;;347275;28;83312;-90
2022/02/15 00:14:03;;;;;;;;;;;7.10;99.90;7.50;99205.00;;;;339883;28;95247;-90
2022/02/15 00:14:14;;;;;;;;;;;7.10;99.90;7.50;99214.00;;;;341694;28;83483;-90
2022/02/15 00:14:26;;;;;;;;;;;7.10;99.90;7.50;99214.00;;;;343875;28;96332;-90
2022/02/15 00:14:38;;;;;;;;;;;7.10;99.90;7.50;99211.00;;;;341696;28;83452;-90
2022/02/15 00:14:50;;;;;;;;;;;7.10;99.90;7.50;99213.00;;;;339779;28;96092;-90
2022/02/15 00:15:02;;;;;;;;;;;7.10;99.90;7.50;99207.00;;;;340586;28;83336;-91
2022/02/15 00:15:14;;;;;;;;;;;7.10;99.90;7.50;99214.00;;;;339802;28;96546;-90
2022/02/15 00:15:26;;;;;;;;;;;7.10;99.90;7.50;99213.00;;;;343269;28;83426;-90
2022/02/15 00:15:38;;;;;;;;;;;7.10;99.90;7.50;99209.00;;;;339166;28;96639;-90
2022/02/15 00:15:49;;;;;;;;;;;7.10;99.90;7.50;99207.00;;;;343378;28;83284;-90
2022/02/15 00:16:01;;;;;;;;;;;7.10;99.90;7.50;99211.00;;;;343902;28;97283;-90
2022/02/15 00:16:13;;;;;;;;;;;7.10;99.90;7.50;99202.00;;;;343387;28;82573;-91
2022/02/15 00:16:25;;;;;;;;;;;7.10;99.90;7.40;99204.00;;;;345270;28;96761;-90
2022/02/15 00:16:36;;;;;;;;;;;7.10;99.90;7.40;99218.00;;;;341962;28;83429;-90
2022/02/15 00:16:50;;;;;;;;;;;7.10;99.90;7.40;99219.00;;;;342474;28;94982;-90
2022/02/15 00:17:02;;;;;;;;;;;7.00;99.90;7.40;99215.00;;;;342916;28;83448;-90
2022/02/15 00:17:14;;;;;;;;;;;7.10;99.90;7.40;99215.00;;;;342341;28;96393;-90
2022/02/15 00:17:26;;;;;;;;;;;7.00;99.90;7.40;99218.00;;;;341916;28;83527;-91
2022/02/15 00:17:40;;;;;;;;;;;7.10;99.90;7.50;99216.00;;;;341229;28;95306;-91
2022/02/15 00:17:51;;;;;;;;;;;7.10;99.90;7.50;99215.00;;;;341735;28;83968;-91
2022/02/15 00:18:03;;;;;;;;;;;7.10;99.90;7.50;99219.00;;;;345210;28;94472;-91
2022/02/15 00:18:15;;;;;;;;;;;7.10;99.90;7.50;99219.00;;;;342028;28;82465;-90
2022/02/15 00:18:27;;;;;;;;;;;7.00;99.90;7.50;99215.00;;;;341194;28;95914;-90
2022/02/15 00:18:38;;;;;;;;;;;7.10;99.90;7.50;99223.00;;;;341847;28;83576;-91
2022/02/15 00:18:50;;;;;;;;;;;7.00;99.90;7.60;99211.00;;;;342531;28;94955;-90
2022/02/15 00:19:02;;;;;;;;;;;7.10;99.90;7.60;99210.00;;;;342037;28;83270;-90
2022/02/15 00:19:14;;;;;;;;;;;7.10;99.90;7.60;99214.00;;;;342492;28;96635;-90
2022/02/15 00:19:26;;;;;;;;;;;7.10;99.90;7.50;99212.00;;;;343402;28;83395;-90
2022/02/15 00:19:38;;;;;;;;;;;7.10;99.90;7.50;99217.00;;;;342623;28;95205;-90
2022/02/15 00:19:50;;;;;;;;;;;7.10;99.90;7.50;99214.00;;;;346004;28;83203;-90
2022/02/15 00:20:03;;;;;;;;;;;7.10;99.90;7.50;99220.00;;;;340642;28;101092;-91
2022/02/15 00:20:15;;;;;;;;;;;7.10;99.90;7.50;99211.00;;;;341865;28;82579;-91
2022/02/15 00:20:27;;;;;;;;;;;7.00;99.90;7.50;99216.00;;;;341220;28;95185;-91
2022/02/15 00:20:41;;;;;;;;;;;7.10;99.90;7.60;99210.00;;;;343246;28;83536;-90
2022/02/15 00:20:52;;;;;;;;;;;7.10;99.90;7.60;99217.00;;;;341181;28;97547;-90
2022/02/15 00:21:04;;;;;;;;;;;7.10;99.90;7.60;99215.00;;;;341904;28;83429;-90
2022/02/15 00:21:16;;;;;;;;;;;7.10;99.90;7.60;99211.00;;;;342434;28;95588;-90
2022/02/15 00:21:28;;;;;;;;;;;7.10;99.90;7.60;99209.00;;;;344739;28;83364;-91
2022/02/15 00:21:40;;;;;;;;;;;7.10;99.90;7.60;99219.00;;;;343912;28;96276;-90
2022/02/15 00:21:52;;;;;;;;;;;7.10;99.90;7.60;99216.00;;;;344779;28;83294;-90
2022/02/15 00:22:04;;;;;;;;;;;7.10;99.90;7.60;99214.00;;;;341195;28;95471;-90
2022/02/15 00:22:16;;;;;;;;;;;7.10;99.90;7.60;99212.00;;;;344577;28;83465;-90
2022/02/15 00:22:28;;;;;;;;;;;7.10;99.90;7.60;99217.00;;;;341166;28;97002;-91
2022/02/15 00:22:40;;;;;;;;;;;7.10;99.90;7.60;99209.00;;;;343326;28;83470;-90
2022/02/15 00:22:52;;;;;;;;;;;7.10;99.90;7.60;99219.00;;;;342434;28;96135;-90
2022/02/15 00:23:04;;;;;;;;;;;7.10;99.90;7.70;99215.00;;;;342919;28;83373;-90
2022/02/15 00:23:16;;;;;;;;;;;7.10;99.90;7.60;99204.00;;;;343555;28;96564;-91
2022/02/15 00:23:28;;;;;;;;;;;7.10;99.90;7.60;99217.00;;;;341874;28;83488;-90
2022/02/15 00:23:40;;;;;;;;;;;7.10;99.90;7.50;99226.00;;;;343973;28;97024;-90
2022/02/15 00:23:52;;;;;;;;;;;7.10;99.90;7.50;99222.00;;;;341959;28;83431;-90
2022/02/15 00:24:10;;;;;;;;;;;7.10;99.90;7.60;99214.00;;;;342473;28;96852;-90
2022/02/15 00:24:22;;;;;;;;;;;7.10;99.90;7.60;99218.00;;;;343388;28;82571;-91
2022/02/15 00:24:33;;;;;;;;;;;7.10;99.90;7.60;99222.00;;;;342395;28;95247;-90
2022/02/15 00:24:45;;;;;;;;;;;7.10;99.90;7.50;99213.00;;;;343264;28;83394;-90
2022/02/15 00:24:57;;;;;;;;;;;7.10;99.90;7.50;99213.00;;;;341189;28;97209;-90
2022/02/15 00:25:09;;;;;;;;;;;7.10;99.90;7.50;99219.00;;;;341610;28;83430;-90
2022/02/15 00:25:21;;;;;;;;;;;7.10;99.90;7.50;99220.00;;;;343907;28;96284;-91
2022/02/15 00:25:34;;;;;;;;;;;7.10;99.90;7.40;99212.00;;;;342022;28;82498;-90
2022/02/15 00:25:46;;;;;;;;;;;7.10;99.90;7.40;99220.00;;;;343895;28;95491;-91
2022/02/15 00:25:57;;;;;;;;;;;7.10;99.90;7.40;99216.00;;;;341070;28;82726;-90
2022/02/15 00:26:09;;;;;;;;;;;7.10;99.90;7.40;99222.00;;;;342941;28;96358;-90
2022/02/15 00:26:21;;;;;;;;;;;7.10;99.90;7.40;99221.00;;;;343282;28;83534;-91
2022/02/15 00:26:34;;;;;;;;;;;7.10;99.90;7.40;99224.00;;;;344039;28;92850;-91
2022/02/15 00:26:45;;;;;;;;;;;7.10;99.90;7.40;99215.00;;;;340593;28;83491;-90
2022/02/15 00:26:57;;;;;;;;;;;7.10;99.90;7.40;99223.00;;;;341556;28;97501;-90
2022/02/15 00:27:09;;;;;;;;;;;7.00;99.90;7.50;99231.00;;;;343531;28;82212;-91
2022/02/15 00:27:21;;;;;;;;;;;7.10;99.90;7.50;99223.00;;;;339761;28;96675;-91
2022/02/15 00:27:34;;;;;;;;;;;7.10;99.90;7.50;99225.00;;;;343295;28;83366;-91
2022/02/15 00:27:46;;;;;;;;;;;7.10;99.90;7.50;99224.00;;;;343926;28;96326;-90
2022/02/15 00:27:58;;;;;;;;;;;7.10;99.90;7.60;99218.00;;;;341875;28;83500;-90
2022/02/15 00:28:10;;;;;;;;;;;7.00;99.90;7.60;99215.00;;;;342648;28;95130;-90
2022/02/15 00:28:22;;;;;;;;;;;7.10;99.90;7.60;99220.00;;;;343140;28;83211;-90
2022/02/15 00:28:35;;;;;;;;;;;7.10;99.90;7.60;99224.00;;;;341162;28;96231;-90
2022/02/15 00:28:46;;;;;;;;;;;7.00;99.90;7.60;99223.00;;;;340626;28;83351;-90
2022/02/15 00:28:58;;;;;;;;;;;7.10;99.90;7.60;99228.00;;;;342113;28;93958;-90
2022/02/15 00:29:10;;;;;;;;;;;7.10;99.90;7.50;99226.00;;;;344575;28;82360;-91
2022/02/15 00:29:22;;;;;;;;;;;7.10;99.90;7.50;99233.00;;;;342569;28;95925;-91
2022/02/15 00:29:34;;;;;;;;;;;7.00;99.90;7.50;99231.00;;;;343396;28;83397;-90
2022/02/15 00:29:46;;;;;;;;;;;7.10;99.90;7.50;99233.00;;;;342568;28;96515;-90
2022/02/15 00:29:58;;;;;;;;;;;7.00;99.90;7.50;99232.00;;;;343342;28;82456;-90
2022/02/15 00:30:10;;;;;;;;;;;7.10;99.90;7.50;99231.00;;;;342429;28;96402;-90
2022/02/15 00:30:22;;;;;;;;;;;7.10;99.90;7.60;99228.00;;;;343295;28;83283;-91
2022/02/15 00:30:35;;;;;;;;;;;7.00;99.90;7.60;99225.00;;;;342503;28;96491;-90
2022/02/15 00:30:47;;;;;;;;;;;7.00;99.90;7.60;99224.00;;;;341940;28;83372;-91
2022/02/15 00:30:58;;;;;;;;;;;7.10;99.90;7.70;99225.00;;;;342534;28;97454;-90
2022/02/15 00:31:10;;;;;;;;;;;7.10;99.90;7.60;99225.00;;;;341956;28;83326;-90
2022/02/15 00:31:22;;;;;;;;;;;7.10;99.90;7.70;99225.00;;;;341153;28;96266;-91
2022/02/15 00:31:35;;;;;;;;;;;7.10;99.90;7.60;99224.00;;;;343404;28;82372;-90
2022/02/15 00:31:47;;;;;;;;;;;7.10;99.90;7.70;99226.00;;;;343886;28;96819;-90
2022/02/15 00:31:58;;;;;;;;;;;7.10;99.90;7.80;99228.00;;;;344263;28;83635;-91
2022/02/15 00:32:10;;;;;;;;;;;7.10;99.90;7.80;99229.00;;;;343767;28;96320;-90
2022/02/15 00:32:22;;;;;;;;;;;7.10;99.90;7.80;99229.00;;;;343068;28;82535;-91
2022/02/15 00:32:35;;;;;;;;;;;7.10;99.90;7.80;99235.00;;;;343942;28;94088;-91
2022/02/15 00:32:47;;;;;;;;;;;7.10;99.90;7.80;99236.00;;;;343312;28;83440;-91
2022/02/15 00:32:59;;;;;;;;;;;7.10;99.90;7.80;99224.00;;;;341702;28;97981;-91
2022/02/15 00:33:10;;;;;;;;;;;7.10;99.90;7.60;99226.00;;;;343292;28;83374;-91
2022/02/15 00:33:22;;;;;;;;;;;7.10;99.90;7.60;99234.00;;;;341187;28;96049;-91
2022/02/15 00:33:34;;;;;;;;;;;7.10;99.90;7.70;99227.00;;;;343386;28;83144;-91
2022/02/15 00:33:46;;;;;;;;;;;7.20;99.90;7.80;99235.00;;;;341299;28;95513;-90
2022/02/15 00:33:57;;;;;;;;;;;7.10;99.90;7.70;99229.00;;;;341921;28;83375;-90
2022/02/15 00:34:09;;;;;;;;;;;7.20;99.90;7.70;99232.00;;;;342562;28;96774;-90
2022/02/15 00:34:21;;;;;;;;;;;7.20;99.90;7.70;99229.00;;;;342017;28;83303;-90
2022/02/15 00:34:34;;;;;;;;;;;7.10;99.90;7.60;99237.00;;;;342575;28;94084;-90
2022/02/15 00:34:46;;;;;;;;;;;7.20;99.90;7.50;99230.00;;;;343304;28;82538;-91
2022/02/15 00:34:58;;;;;;;;;;;7.20;99.90;7.40;99231.00;;;;341872;28;96156;-91
2022/02/15 00:35:10;;;;;;;;;;;7.10;99.90;7.50;99237.00;;;;343102;28;83462;-90
2022/02/15 00:35:22;;;;;;;;;;;7.10;99.90;7.50;99229.00;;;;343679;28;96810;-90
2022/02/15 00:35:34;;;;;;;;;;;7.20;99.90;7.50;99233.00;;;;343274;28;83380;-90
2022/02/15 00:35:45;;;;;;;;;;;7.10;99.90;7.40;99229.00;;;;341247;28;95468;-90
2022/02/15 00:35:58;;;;;;;;;;;7.10;99.90;7.40;99242.00;;;;340386;28;83358;-91
2022/02/15 00:36:10;;;;;;;;;;;7.10;99.90;7.40;99233.00;;;;341181;28;94950;-90
2022/02/15 00:36:21;;;;;;;;;;;7.10;99.90;7.40;99232.00;;;;340621;28;83304;-90
2022/02/15 00:36:38;;;;;;;;;;;7.10;99.90;7.30;99237.00;;;;342503;28;96398;-90
2022/02/15 00:36:50;;;;;;;;;;;7.10;99.90;7.30;99238.00;;;;343274;28;83330;-91
2022/02/15 00:37:02;;;;;;;;;;;7.10;99.90;7.30;99238.00;;;;341288;28;96620;-90
2022/02/15 00:37:14;;;;;;;;;;;7.10;99.90;7.30;99239.00;;;;341912;28;83190;-91
2022/02/15 00:37:26;;;;;;;;;;;7.00;99.90;7.20;99234.00;;;;339789;28;96914;-90
2022/02/15 00:37:37;;;;;;;;;;;7.00;99.90;7.30;99238.00;;;;343433;28;82356;-90
2022/02/15 00:37:49;;;;;;;;;;;7.00;99.90;7.50;99241.00;;;;342576;28;95633;-90
2022/02/15 00:38:01;;;;;;;;;;;7.10;99.90;7.50;99241.00;;;;343949;28;83654;-91
2022/02/15 00:38:13;;;;;;;;;;;7.10;99.90;7.50;99239.00;;;;341054;28;97418;-91
2022/02/15 00:38:27;;;;;;;;;;;7.10;99.90;7.60;99233.00;;;;343267;28;83252;-91
2022/02/15 00:38:39;;;;;;;;;;;7.10;99.90;7.60;99242.00;;;;341176;28;96413;-90
2022/02/15 00:38:51;;;;;;;;;;;7.10;99.90;7.70;99247.00;;;;342002;28;83335;-90
2022/02/15 00:39:03;;;;;;;;;;;7.10;99.90;7.80;99245.00;;;;341127;28;97835;-90
2022/02/15 00:39:15;;;;;;;;;;;7.10;99.90;7.80;99241.00;;;;344743;28;83422;-90
2022/02/15 00:39:27;;;;;;;;;;;7.10;99.90;7.80;99235.00;;;;344851;28;96724;-88
2022/02/15 00:39:38;;;;;;;;;;;7.10;99.90;7.70;99245.00;;;;343323;28;82274;-90
2022/02/15 00:39:50;;;;;;;;;;;7.10;99.90;7.70;99241.00;;;;345257;28;96404;-90
2022/02/15 00:40:03;;;;;;;;;;;7.10;99.90;7.70;99250.00;;;;342971;28;83405;-90
2022/02/15 00:40:15;;;;;;;;;;;7.10;99.90;7.70;99244.00;;;;343992;28;96561;-90
2022/02/15 00:40:26;;;;;;;;;;;7.10;99.90;7.80;99244.00;;;;344640;28;83319;-90
2022/02/15 00:40:38;;;;;;;;;;;7.10;99.90;7.70;99246.00;;;;339859;28;95444;-90
2022/02/15 00:40:50;;;;;;;;;;;7.20;99.90;7.70;99249.00;;;;343355;28;83340;-90
2022/02/15 00:41:03;;;;;;;;;;;7.10;99.90;7.70;99232.00;;;;343334;28;98313;-90
2022/02/15 00:41:14;;;;;;;;;;;7.10;99.90;7.70;99249.00;;;;341728;28;83374;-90
2022/02/15 00:41:26;;;;;;;;;;;7.20;99.90;7.70;99238.00;;;;343744;28;97243;-90
2022/02/15 00:41:38;;;;;;;;;;;7.20;99.90;7.60;99247.00;;;;343442;28;83253;-91
2022/02/15 00:41:50;;;;;;;;;;;7.20;99.90;7.70;99249.00;;;;342423;28;96400;-90
2022/02/15 00:42:02;;;;;;;;;;;7.20;99.90;7.80;99241.00;;;;341871;28;83447;-90
2022/02/15 00:42:14;;;;;;;;;;;7.10;99.90;7.70;99249.00;;;;341035;28;96448;-90
2022/02/15 00:42:26;;;;;;;;;;;7.20;99.90;7.60;99238.00;;;;341943;28;83377;-91
2022/02/15 00:42:39;;;;;;;;;;;7.10;99.90;7.60;99243.00;;;;343725;28;94698;-90
2022/02/15 00:42:51;;;;;;;;;;;7.10;99.90;7.60;99252.00;;;;343229;28;83374;-90
2022/02/15 00:43:03;;;;;;;;;;;7.20;99.90;7.50;99245.00;;;;342427;28;97044;-90
2022/02/15 00:43:15;;;;;;;;;;;7.10;99.90;7.50;99252.00;;;;341928;28;83409;-91
2022/02/15 00:43:27;;;;;;;;;;;7.10;99.90;7.60;99252.00;;;;343829;28;95672;-90
2022/02/15 00:43:39;;;;;;;;;;;7.20;99.90;7.60;99245.00;;;;343397;28;82429;-90
2022/02/15 00:43:51;;;;;;;;;;;7.20;99.90;7.60;99246.00;;;;341156;28;96391;-90
2022/02/15 00:44:02;;;;;;;;;;;7.10;99.90;7.60;99237.00;;;;342857;28;83622;-89
2022/02/15 00:44:14;;;;;;;;;;;7.10;99.90;7.60;99247.00;;;;342381;28;96803;-90
2022/02/15 00:44:27;;;;;;;;;;;7.20;99.90;7.70;99250.00;;;;343937;28;83646;-90
2022/02/15 00:44:39;;;;;;;;;;;7.10;99.90;7.70;99247.00;;;;343785;28;95536;-90
2022/02/15 00:44:50;;;;;;;;;;;7.20;99.90;7.70;99245.00;;;;343350;28;83333;-91
2022/02/15 00:45:03;;;;;;;;;;;7.10;99.90;7.60;99243.00;;;;342569;28;97385;-90
2022/02/15 00:45:15;;;;;;;;;;;7.10;99.90;7.50;99252.00;;;;343349;28;84108;-90
2022/02/15 00:45:27;;;;;;;;;;;7.10;99.90;7.50;99247.00;;;;341108;28;96573;-90
2022/02/15 00:45:39;;;;;;;;;;;7.10;99.90;7.50;99253.00;;;;344666;28;82953;-90
2022/02/15 00:45:50;;;;;;;;;;;7.20;99.90;7.50;99246.00;;;;342518;28;96375;-90
2022/02/15 00:46:02;;;;;;;;;;;7.10;99.90;7.60;99247.00;;;;341916;28;83626;-90
2022/02/15 00:46:14;;;;;;;;;;;7.10;99.90;7.60;99247.00;;;;342507;28;96515;-89
2022/02/15 00:46:26;;;;;;;;;;;7.10;99.90;7.50;99251.00;;;;343274;28;83425;-90
2022/02/15 00:46:38;;;;;;;;;;;7.10;99.90;7.50;99253.00;;;;339774;28;94949;-90
2022/02/15 00:46:49;;;;;;;;;;;7.10;99.90;7.50;99257.00;;;;341971;28;83435;-91
2022/02/15 00:47:01;;;;;;;;;;;7.10;99.90;7.40;99251.00;;;;341908;28;96326;-90
2022/02/15 00:47:15;;;;;;;;;;;7.10;99.90;7.40;99247.00;;;;341693;28;83395;-90
2022/02/15 00:47:27;;;;;;;;;;;7.10;99.90;7.40;99254.00;;;;342372;28;97737;-91
2022/02/15 00:47:39;;;;;;;;;;;7.10;99.90;7.40;99252.00;;;;344661;28;83240;-90
2022/02/15 00:47:53;;;;;;;;;;;7.10;99.90;7.40;99251.00;;;;343854;28;96773;-90
2022/02/15 00:48:04;;;;;;;;;;;7.10;99.90;7.40;99257.00;;;;341848;28;83506;-90
2022/02/15 00:48:16;;;;;;;;;;;7.10;99.90;7.40;99254.00;;;;342577;28;95318;-91
2022/02/15 00:48:28;;;;;;;;;;;7.10;99.90;7.40;99260.00;;;;339372;28;82424;-90
2022/02/15 00:48:40;;;;;;;;;;;7.10;99.90;7.30;99248.00;;;;339821;28;93754;-90
2022/02/15 00:48:52;;;;;;;;;;;7.10;99.90;7.30;99251.00;;;;343395;28;82367;-91
2022/02/15 00:49:04;;;;;;;;;;;7.10;99.90;7.40;99261.00;;;;341161;28;97589;-90
2022/02/15 00:49:15;;;;;;;;;;;7.10;99.90;7.40;99249.00;;;;341886;28;82395;-90
2022/02/15 00:49:27;;;;;;;;;;;7.10;99.90;7.40;99262.00;;;;342486;28;96473;-90
2022/02/15 00:49:39;;;;;;;;;;;7.10;99.90;7.40;99257.00;;;;341837;28;83442;-90
2022/02/15 00:49:53;;;;;;;;;;;7.10;99.90;7.60;99252.00;;;;341229;28;94932;-90
2022/02/15 00:50:05;;;;;;;;;;;7.10;99.90;7.50;99258.00;;;;342190;28;83449;-90
2022/02/15 00:50:17;;;;;;;;;;;7.10;99.90;7.60;99249.00;;;;342531;28;96709;-90
2022/02/15 00:50:29;;;;;;;;;;;7.10;99.90;7.60;99256.00;;;;341957;28;83405;-90
2022/02/15 00:50:41;;;;;;;;;;;7.10;99.90;7.60;99256.00;;;;341078;28;95875;-90
2022/02/15 00:50:53;;;;;;;;;;;7.10;99.90;7.60;99258.00;;;;340354;28;83575;-90
2022/02/15 00:51:05;;;;;;;;;;;7.10;99.90;7.70;99254.00;;;;341029;28;97831;-90
2022/02/15 00:51:17;;;;;;;;;;;7.10;99.90;7.70;99244.00;;;;340503;28;83384;-90
2022/02/15 00:51:29;;;;;;;;;;;7.10;99.90;7.70;99255.00;;;;342591;28;94291;-91
2022/02/15 00:51:40;;;;;;;;;;;7.10;99.90;7.70;99255.00;;;;341993;28;83500;-90
2022/02/15 00:51:52;;;;;;;;;;;7.10;99.90;7.80;99257.00;;;;341069;28;95571;-90
2022/02/15 00:52:05;;;;;;;;;;;7.10;99.90;7.70;99254.00;;;;340670;28;82506;-91
2022/02/15 00:52:17;;;;;;;;;;;7.10;99.90;7.60;99258.00;;;;339963;28;92693;-90
2022/02/15 00:52:29;;;;;;;;;;;7.10;99.90;7.60;99262.00;;;;343438;28;82489;-90
2022/02/15 00:52:41;;;;;;;;;;;7.10;99.90;7.60;99259.00;;;;342461;28;96075;-90
2022/02/15 00:52:54;;;;;;;;;;;7.10;99.90;7.50;99253.00;;;;341451;28;83266;-90
2022/02/15 00:53:06;;;;;;;;;;;7.10;99.90;7.50;99261.00;;;;343466;28;98262;-90
2022/02/15 00:53:18;;;;;;;;;;;7.10;99.90;7.50;99260.00;;;;341861;28;83535;-90
2022/02/15 00:53:29;;;;;;;;;;;7.10;99.90;7.50;99266.00;;;;340988;28;96179;-90
2022/02/15 00:53:41;;;;;;;;;;;7.10;99.90;7.50;99268.00;;;;344705;28;83428;-90
2022/02/15 00:53:55;;;;;;;;;;;7.10;99.90;7.60;99261.00;;;;339840;28;96306;-90
2022/02/15 00:54:07;;;;;;;;;;;7.10;99.90;7.60;99260.00;;;;341739;28;82442;-90
2022/02/15 00:54:19;;;;;;;;;;;7.10;99.90;7.60;99263.00;;;;339716;28;97659;-90
2022/02/15 00:54:31;;;;;;;;;;;7.10;99.90;7.60;99260.00;;;;340521;28;83343;-91
2022/02/15 00:54:43;;;;;;;;;;;7.10;99.90;7.70;99263.00;;;;341156;28;92980;-90
2022/02/15 00:54:54;;;;;;;;;;;7.10;99.90;7.80;99264.00;;;;340199;28;83466;-91
2022/02/15 00:55:08;;;;;;;;;;;7.10;99.90;7.80;99265.00;;;;340918;28;97644;-90
2022/02/15 00:55:20;;;;;;;;;;;7.10;99.90;7.80;99263.00;;;;341956;28;82472;-90
2022/02/15 00:55:32;;;;;;;;;;;7.10;99.90;7.70;99258.00;;;;341162;28;96961;-91
2022/02/15 00:55:44;;;;;;;;;;;7.10;99.90;7.70;99263.00;;;;340649;28;83213;-90
2022/02/15 00:55:55;;;;;;;;;;;7.10;99.90;7.70;99258.00;;;;342757;28;95501;-90
2022/02/15 00:56:07;;;;;;;;;;;7.20;99.90;7.60;99262.00;;;;345883;28;83242;-91
2022/02/15 00:56:19;;;;;;;;;;;7.10;99.90;7.60;99261.00;;;;342559;28;95025;-92
2022/02/15 00:56:31;;;;;;;;;;;7.10;99.90;7.60;99264.00;;;;341852;28;83474;-90
2022/02/15 00:56:42;;;;;;;;;;;7.10;99.90;7.50;99262.00;;;;341116;28;95647;-90
2022/02/15 00:56:55;;;;;;;;;;;7.10;99.90;7.50;99267.00;;;;340512;28;83430;-90
2022/02/15 00:57:07;;;;;;;;;;;7.10;99.90;7.50;99269.00;;;;342176;28;97565;-90
2022/02/15 00:57:19;;;;;;;;;;;7.10;99.90;7.50;99267.00;;;;341933;28;83358;-90
2022/02/15 00:57:31;;;;;;;;;;;7.10;99.90;7.50;99270.00;;;;342357;28;95526;-90
2022/02/15 00:57:42;;;;;;;;;;;7.10;99.90;7.50;99271.00;;;;343320;28;82462;-90
2022/02/15 00:57:54;;;;;;;;;;;7.10;99.90;7.50;99264.00;;;;339842;28;96166;-90
2022/02/15 00:58:06;;;;;;;;;;;7.10;99.90;7.50;99269.00;;;;343240;28;82333;-90
2022/02/15 00:58:18;;;;;;;;;;;7.10;99.90;7.50;99267.00;;;;342523;28;97285;-91
2022/02/15 00:58:30;;;;;;;;;;;7.10;99.90;7.50;99275.00;;;;341876;28;83402;-90
2022/02/15 00:58:42;;;;;;;;;;;7.10;99.90;7.50;99267.00;;;;341219;28;96599;-89
2022/02/15 00:58:56;;;;;;;;;;;7.10;99.90;7.50;99271.00;;;;342092;28;83466;-91
2022/02/15 00:59:09;;;;;;;;;;;7.10;99.90;7.50;99276.00;;;;340061;28;97238;-91
2022/02/15 00:59:21;;;;;;;;;;;7.10;99.90;7.50;99274.00;;;;341668;28;83362;-90
2022/02/15 00:59:32;;;;;;;;;;;7.10;99.90;7.40;99273.00;;;;341225;28;96735;-90
2022/02/15 00:59:44;;;;;;;;;;;7.10;99.90;7.50;99273.00;;;;344610;28;83315;-91
2022/02/15 00:59:56;;;;;;;;;;;7.10;99.90;7.40;99281.00;;;;341091;28;96309;-91
2022/02/15 01:00:09;;;;;;;;;;;7.10;99.90;7.40;99277.00;;;;341992;28;82501;-90
2022/02/15 01:00:22;;;;;;;;;;;7.10;99.90;7.40;99267.00;;;;341065;28;94144;-90
2022/02/15 01:00:34;;;;;;;;;;;7.10;99.90;7.40;99279.00;;;;343301;28;83430;-91
2022/02/15 01:00:46;;;;;;;;;;;7.10;99.90;7.40;99271.00;;;;339744;28;96480;-90
2022/02/15 01:00:58;;;;;;;;;;;7.00;99.90;7.40;99277.00;;;;340642;28;83562;-91
2022/02/15 01:01:10;;;;;;;;;;;7.10;99.90;7.40;99278.00;;;;346359;28;97838;-91